createdAt,value
2019-03-30T00:00:36.079Z,54.93
2019-03-30T00:03:04.294Z,56.53
2019-03-30T00:05:33.434Z,54.66
2019-03-30T00:08:02.820Z,55.21
2019-03-30T00:10:32.116Z,54.15
2019-03-30T00:13:00.466Z,54.27
2019-03-30T00:15:28.688Z,54.34
2019-03-30T00:17:57.173Z,53.54
2019-03-30T00:20:25.241Z,53.40
2019-03-30T00:22:53.278Z,53.15
2019-03-30T00:25:22.235Z,53.12
2019-03-30T00:27:50.368Z,53.67
2019-03-30T00:30:19.286Z,53.91
2019-03-30T00:32:48.247Z,54.06
2019-03-30T00:35:16.222Z,55.13
2019-03-30T00:37:44.283Z,54.85
2019-03-30T00:40:12.221Z,58.71
2019-03-30T00:42:40.593Z,55.24
2019-03-30T00:45:08.916Z,55.29
2019-03-30T00:47:37.076Z,55.26
2019-03-30T00:50:05.341Z,56.10
2019-03-30T00:52:33.325Z,56.45
2019-03-30T00:55:01.352Z,56.91
2019-03-30T00:57:29.340Z,57.00
2019-03-30T00:59:57.346Z,57.37
2019-03-30T01:02:25.344Z,57.61
2019-03-30T01:04:53.258Z,57.58
2019-03-30T01:07:21.295Z,58.12
2019-03-30T01:09:49.274Z,58.44
2019-03-30T01:12:17.289Z,58.65
2019-03-30T01:14:45.274Z,59.10
2019-03-30T01:17:13.363Z,57.70
2019-03-30T01:19:41.427Z,57.78
2019-03-30T01:22:09.510Z,57.79
2019-03-30T01:24:37.433Z,57.94
2019-03-30T01:27:05.651Z,58.24
2019-03-30T01:29:33.810Z,58.72
2019-03-30T01:32:01.742Z,58.78
2019-03-30T01:34:29.832Z,59.44
2019-03-30T01:36:57.842Z,59.00
2019-03-30T01:39:25.882Z,59.08
2019-03-30T01:41:53.818Z,59.26
2019-03-30T01:44:21.807Z,59.56
2019-03-30T01:46:49.837Z,59.69
2019-03-30T01:49:17.819Z,59.16
2019-03-30T01:51:45.852Z,59.26
2019-03-30T01:54:13.794Z,59.72
2019-03-30T01:56:41.818Z,60.15
2019-03-30T01:59:09.796Z,60.27
2019-03-30T02:01:37.905Z,60.53
2019-03-30T02:04:05.908Z,60.47
2019-03-30T02:06:33.824Z,60.63
2019-03-30T02:09:01.806Z,60.54
2019-03-30T02:11:29.809Z,60.98
2019-03-30T02:13:57.822Z,61.42
2019-03-30T02:16:25.819Z,61.93
2019-03-30T02:18:53.808Z,62.27
2019-03-30T02:21:21.899Z,62.37
2019-03-30T02:23:49.928Z,62.30
2019-03-30T02:26:17.921Z,62.34
2019-03-30T02:28:45.922Z,62.47
2019-03-30T02:31:13.900Z,63.05
2019-03-30T02:33:41.877Z,64.04
2019-03-30T02:36:09.927Z,64.40
2019-03-30T02:38:37.929Z,65.69
2019-03-30T02:41:05.922Z,63.57
2019-03-30T02:43:33.904Z,62.50
2019-03-30T02:46:01.914Z,63.50
2019-03-30T02:48:29.899Z,63.87
2019-03-30T02:50:57.965Z,66.24
2019-03-30T02:53:25.953Z,65.40
2019-03-30T02:55:53.939Z,66.28
2019-03-30T02:58:21.977Z,64.05
2019-03-30T03:00:50.013Z,62.92
2019-03-30T03:03:18.023Z,63.47
2019-03-30T03:05:46.068Z,62.18
2019-03-30T03:08:14.068Z,62.92
2019-03-30T03:10:42.243Z,63.36
2019-03-30T03:13:10.173Z,64.15
2019-03-30T03:15:38.163Z,64.04
2019-03-30T03:18:06.143Z,64.35
2019-03-30T03:20:34.089Z,63.68
2019-03-30T03:23:02.207Z,64.68
2019-03-30T03:25:30.371Z,63.67
2019-03-30T03:27:58.381Z,62.79
2019-03-30T03:30:26.352Z,61.69
2019-03-30T03:32:54.393Z,61.06
2019-03-30T03:35:22.618Z,63.37
2019-03-30T03:37:50.604Z,61.02
2019-03-30T03:40:18.679Z,61.06
2019-03-30T03:42:46.817Z,61.99
2019-03-30T03:45:14.999Z,61.51
2019-03-30T03:47:42.989Z,61.84
2019-03-30T03:50:28.784Z,61.65
2019-03-30T03:52:56.889Z,62.40
2019-03-30T03:55:25.092Z,62.21
2019-03-30T03:57:53.641Z,62.35
2019-03-30T04:00:21.829Z,62.65
2019-03-30T04:02:51.579Z,62.60
2019-03-30T04:05:23.180Z,62.77
2019-03-30T04:07:53.345Z,63.30
2019-03-30T04:10:24.959Z,63.61
2019-03-30T04:12:56.261Z,64.24
2019-03-30T04:15:24.906Z,63.90
2019-03-30T04:17:53.220Z,63.85
2019-03-30T04:20:23.688Z,63.76
2019-03-30T04:22:53.380Z,64.29
2019-03-30T04:25:23.003Z,64.33
2019-03-30T04:27:51.285Z,64.89
2019-03-30T04:30:19.235Z,64.53
2019-03-30T04:32:47.232Z,64.10
2019-03-30T04:35:15.289Z,64.43
2019-03-30T04:37:43.371Z,65.22
2019-03-30T04:40:11.995Z,65.48
2019-03-30T04:42:40.070Z,66.92
2019-03-30T04:45:08.505Z,66.44
2019-03-30T04:47:36.551Z,65.92
2019-03-30T04:50:04.824Z,62.80
2019-03-30T04:52:32.820Z,62.21
2019-03-30T04:55:00.914Z,62.14
2019-03-30T04:57:29.012Z,61.85
2019-03-30T04:59:56.982Z,62.05
2019-03-30T05:02:25.051Z,64.15
2019-03-30T05:04:53.040Z,62.68
2019-03-30T05:07:21.029Z,61.07
2019-03-30T05:09:49.138Z,63.49
2019-03-30T05:12:17.148Z,62.12
2019-03-30T05:14:46.139Z,61.52
2019-03-30T05:17:14.239Z,58.39
2019-03-30T05:19:42.333Z,60.89
2019-03-30T05:22:12.921Z,57.01
2019-03-30T05:24:40.488Z,58.09
2019-03-30T05:27:08.689Z,55.79
2019-03-30T05:29:36.792Z,56.38
2019-03-30T05:32:04.924Z,54.35
2019-03-30T05:34:33.143Z,55.33
2019-03-30T05:37:01.186Z,55.14
2019-03-30T05:39:29.804Z,55.72
2019-03-30T05:41:58.062Z,55.35
2019-03-30T05:44:26.079Z,54.12
2019-03-30T05:46:54.092Z,54.26
2019-03-30T05:49:22.155Z,56.32
2019-03-30T05:51:50.162Z,56.66
2019-03-30T05:54:19.404Z,54.81
2019-03-30T05:56:47.384Z,55.60
2019-03-30T05:59:15.494Z,55.98
2019-03-30T06:01:43.708Z,57.00
2019-03-30T06:04:11.607Z,55.24
2019-03-30T06:06:39.623Z,54.06
2019-03-30T06:09:07.707Z,54.14
2019-03-30T06:11:35.640Z,53.71
2019-03-30T06:14:03.733Z,55.84
2019-03-30T06:16:31.720Z,51.89
2019-03-30T06:18:59.770Z,51.74
2019-03-30T06:21:27.959Z,53.18
2019-03-30T06:23:56.028Z,51.60
2019-03-30T06:26:24.072Z,50.70
2019-03-30T06:28:52.241Z,50.87
2019-03-30T06:31:20.258Z,50.44
2019-03-30T06:33:48.983Z,50.46
2019-03-30T06:36:16.984Z,51.04
2019-03-30T06:38:44.988Z,50.74
2019-03-30T06:41:13.306Z,49.42
2019-03-30T06:43:41.801Z,49.97
2019-03-30T06:46:09.865Z,50.53
2019-03-30T06:48:37.872Z,50.47
2019-03-30T06:51:05.941Z,50.03
2019-03-30T06:53:33.979Z,49.70
2019-03-30T06:56:01.953Z,48.91
2019-03-30T06:58:31.416Z,48.91
2019-03-30T07:00:59.746Z,48.47
2019-03-30T07:03:28.111Z,47.54
2019-03-30T07:05:57.139Z,47.42
2019-03-30T07:08:28.669Z,47.73
2019-03-30T07:10:58.099Z,47.62
2019-03-30T07:13:27.709Z,47.73
2019-03-30T07:15:57.949Z,47.28
2019-03-30T07:18:25.953Z,47.55
2019-03-30T07:20:54.126Z,47.36
2019-03-30T07:23:22.295Z,46.70
2019-03-30T07:25:50.503Z,46.80
2019-03-30T07:28:18.608Z,46.33
2019-03-30T07:30:47.091Z,45.73
2019-03-30T07:33:15.353Z,45.91
2019-03-30T07:35:43.447Z,46.57
2019-03-30T07:38:11.602Z,45.44
2019-03-30T07:40:39.598Z,43.75
2019-03-30T07:43:08.465Z,43.61
2019-03-30T07:45:36.499Z,42.61
2019-03-30T07:48:04.667Z,42.71
2019-03-30T07:50:33.289Z,43.06
2019-03-30T07:53:01.294Z,42.30
2019-03-30T07:55:29.315Z,41.81
2019-03-30T07:57:57.265Z,41.39
2019-03-30T08:00:30.718Z,40.98
2019-03-30T08:02:56.309Z,40.20
2019-03-30T08:05:24.476Z,40.77
2019-03-30T08:07:52.768Z,40.84
2019-03-30T08:10:21.903Z,40.90
2019-03-30T08:12:50.089Z,40.78
2019-03-30T08:15:18.187Z,41.19
2019-03-30T08:17:46.199Z,41.69
2019-03-30T08:20:14.657Z,42.44
2019-03-30T08:22:42.687Z,42.73
2019-03-30T08:25:11.035Z,43.38
2019-03-30T08:27:39.126Z,43.55
2019-03-30T08:30:07.862Z,43.35
2019-03-30T08:32:35.942Z,42.70
2019-03-30T08:35:04.680Z,42.44
2019-03-30T08:37:32.726Z,41.66
2019-03-30T08:40:00.948Z,41.61
2019-03-30T08:42:29.007Z,41.55
2019-03-30T08:44:57.007Z,41.91
2019-03-30T08:47:25.079Z,41.92
2019-03-30T08:49:53.247Z,42.20
2019-03-30T08:52:21.246Z,42.57
2019-03-30T08:54:49.344Z,43.06
2019-03-30T08:57:17.392Z,42.29
2019-03-30T08:59:45.433Z,41.99
2019-03-30T09:02:13.391Z,41.46
2019-03-30T09:04:41.474Z,40.87
2019-03-30T09:07:09.491Z,40.62
2019-03-30T09:09:37.533Z,41.46
2019-03-30T09:12:05.500Z,41.70
2019-03-30T09:14:33.600Z,42.31
2019-03-30T09:17:01.649Z,42.06
2019-03-30T09:19:29.732Z,41.64
2019-03-30T09:21:57.821Z,42.33
2019-03-30T09:24:25.906Z,41.61
2019-03-30T09:26:53.941Z,41.62
2019-03-30T09:29:22.030Z,41.49
2019-03-30T09:31:50.144Z,41.00
2019-03-30T09:34:18.212Z,40.65
2019-03-30T09:36:46.426Z,40.48
2019-03-30T09:39:14.570Z,39.95
2019-03-30T09:41:42.590Z,39.89
2019-03-30T09:44:10.613Z,38.95
2019-03-30T09:46:38.633Z,39.49
2019-03-30T09:49:06.667Z,39.63
2019-03-30T09:51:34.709Z,39.80
2019-03-30T09:54:02.797Z,39.92
2019-03-30T09:56:32.438Z,39.66
2019-03-30T09:59:00.472Z,38.91
2019-03-30T10:01:28.472Z,38.17
2019-03-30T10:03:56.563Z,38.49
2019-03-30T10:06:33.897Z,38.95
2019-03-30T10:08:54.568Z,38.37
2019-03-30T10:11:22.544Z,38.24
2019-03-30T10:13:50.659Z,38.44
2019-03-30T10:16:18.640Z,37.99
2019-03-30T10:18:46.713Z,38.09
2019-03-30T10:21:14.918Z,37.98
2019-03-30T10:23:43.075Z,37.99
2019-03-30T10:26:11.148Z,37.87
2019-03-30T10:28:39.152Z,37.52
2019-03-30T10:31:07.216Z,37.34
2019-03-30T10:33:35.254Z,37.21
2019-03-30T10:36:03.502Z,37.42
2019-03-30T10:38:31.628Z,37.89
2019-03-30T10:40:59.628Z,38.09
2019-03-30T10:43:27.796Z,37.69
2019-03-30T10:45:55.835Z,38.26
2019-03-30T10:48:23.863Z,37.77
2019-03-30T10:50:51.916Z,38.07
2019-03-30T10:53:19.971Z,37.99
2019-03-30T10:55:48.009Z,38.09
2019-03-30T10:58:16.028Z,37.88
2019-03-30T11:00:44.124Z,37.96
2019-03-30T11:03:12.328Z,37.44
2019-03-30T11:05:40.476Z,37.40
2019-03-30T11:08:08.567Z,36.89
2019-03-30T11:10:36.788Z,37.17
2019-03-30T11:13:04.977Z,37.57
2019-03-30T11:15:34.298Z,37.01
2019-03-30T11:18:02.866Z,36.75
2019-03-30T11:20:31.021Z,36.43
2019-03-30T11:22:59.062Z,35.73
2019-03-30T11:25:27.203Z,36.12
2019-03-30T11:27:55.274Z,36.38
2019-03-30T11:30:23.238Z,36.11
2019-03-30T11:32:51.232Z,36.10
2019-03-30T11:35:19.305Z,35.63
2019-03-30T11:37:47.290Z,35.65
2019-03-30T11:40:15.369Z,35.16
2019-03-30T11:42:44.104Z,35.33
2019-03-30T11:45:13.370Z,34.59
2019-03-30T11:47:42.105Z,34.41
2019-03-30T11:50:10.130Z,34.49
2019-03-30T11:52:38.342Z,34.67
2019-03-30T11:55:20.539Z,34.17
2019-03-30T11:57:37.251Z,34.13
2019-03-30T12:00:05.809Z,34.11
2019-03-30T12:02:33.812Z,34.13
2019-03-30T12:05:01.826Z,33.90
2019-03-30T12:07:29.861Z,33.97
2019-03-30T12:09:57.987Z,34.03
2019-03-30T12:12:25.998Z,34.65
2019-03-30T12:14:54.034Z,34.35
2019-03-30T12:17:22.448Z,35.11
2019-03-30T12:19:50.591Z,34.72
2019-03-30T12:22:18.654Z,34.32
2019-03-30T12:24:46.883Z,34.79
2019-03-30T12:27:15.117Z,34.50
2019-03-30T12:29:44.631Z,34.37
2019-03-30T12:32:12.787Z,34.17
2019-03-30T12:34:41.420Z,34.22
2019-03-30T12:37:09.702Z,34.27
2019-03-30T12:39:37.706Z,33.22
2019-03-30T12:42:05.863Z,33.68
2019-03-30T12:44:33.936Z,34.17
2019-03-30T12:47:02.087Z,34.41
2019-03-30T12:49:30.130Z,33.97
2019-03-30T12:51:58.152Z,33.96
2019-03-30T12:54:26.144Z,34.23
2019-03-30T12:56:54.160Z,33.62
2019-03-30T12:59:22.201Z,33.48
2019-03-30T13:01:50.800Z,33.67
2019-03-30T13:04:19.098Z,33.69
2019-03-30T13:06:47.209Z,33.81
2019-03-30T13:09:15.633Z,34.33
2019-03-30T13:11:43.911Z,33.63
2019-03-30T13:14:12.225Z,33.77
2019-03-30T13:16:40.256Z,33.80
2019-03-30T13:19:08.495Z,33.94
2019-03-30T13:21:36.586Z,33.82
2019-03-30T13:24:04.586Z,33.57
2019-03-30T13:26:32.621Z,33.32
2019-03-30T13:29:00.889Z,33.18
2019-03-30T13:31:28.912Z,32.71
2019-03-30T13:33:57.120Z,32.73
2019-03-30T13:36:43.448Z,32.93
2019-03-30T13:39:11.816Z,32.83
2019-03-30T13:41:39.769Z,33.02
2019-03-30T13:44:07.800Z,33.00
2019-03-30T13:46:35.815Z,33.23
2019-03-30T13:49:03.927Z,33.31
2019-03-30T13:51:31.951Z,33.32
2019-03-30T13:53:59.932Z,33.38
2019-03-30T13:56:27.962Z,33.35
2019-03-30T13:58:55.985Z,33.17
2019-03-30T14:01:24.013Z,33.07
2019-03-30T14:03:52.070Z,33.51
2019-03-30T14:06:20.109Z,33.60
2019-03-30T14:08:48.053Z,33.88
2019-03-30T14:11:16.081Z,33.49
2019-03-30T14:13:44.198Z,33.50
2019-03-30T14:16:12.218Z,34.41
2019-03-30T14:18:40.211Z,34.24
2019-03-30T14:21:08.276Z,34.12
2019-03-30T14:23:36.368Z,34.22
2019-03-30T14:26:04.539Z,34.27
2019-03-30T14:28:32.629Z,34.09
2019-03-30T14:31:00.853Z,34.25
2019-03-30T14:33:29.055Z,34.27
2019-03-30T14:35:57.084Z,34.30
2019-03-30T14:38:25.160Z,34.17
2019-03-30T14:40:53.149Z,34.09
2019-03-30T14:43:21.199Z,34.20
2019-03-30T14:45:49.345Z,34.29
2019-03-30T14:48:17.365Z,34.38
2019-03-30T14:50:45.407Z,34.41
2019-03-30T14:53:13.472Z,34.52
2019-03-30T14:55:41.531Z,34.37
2019-03-30T14:58:09.593Z,34.49
2019-03-30T15:00:37.747Z,34.53
2019-03-30T15:03:05.840Z,34.35
2019-03-30T15:05:34.015Z,34.86
2019-03-30T15:08:02.202Z,35.22
2019-03-30T15:10:30.184Z,35.49
2019-03-30T15:12:58.220Z,35.44
2019-03-30T15:15:26.366Z,35.62
2019-03-30T15:17:54.417Z,35.61
2019-03-30T15:20:22.473Z,35.95
2019-03-30T15:22:50.495Z,35.93
2019-03-30T15:25:18.633Z,35.47
2019-03-30T15:27:46.660Z,35.74
2019-03-30T15:30:14.967Z,35.97
2019-03-30T15:32:43.139Z,36.19
2019-03-30T15:35:11.304Z,36.38
2019-03-30T15:37:39.772Z,36.78
2019-03-30T15:40:08.347Z,36.85
2019-03-30T15:42:39.878Z,36.87
2019-03-30T15:45:06.980Z,37.02
2019-03-30T15:47:36.016Z,37.04
2019-03-30T15:50:04.567Z,37.25
2019-03-30T15:52:33.029Z,37.36
2019-03-30T15:55:01.328Z,37.48
2019-03-30T15:57:29.301Z,37.51
2019-03-30T15:59:57.318Z,37.62
2019-03-30T16:02:25.405Z,37.01
2019-03-30T16:04:53.505Z,37.33
2019-03-30T16:07:21.571Z,38.23
2019-03-30T16:09:51.764Z,37.94
2019-03-30T16:12:19.798Z,37.83
2019-03-30T16:14:47.869Z,37.85
2019-03-30T16:17:15.884Z,38.15
2019-03-30T16:19:43.866Z,38.54
2019-03-30T16:22:12.264Z,38.41
2019-03-30T16:24:41.405Z,38.42
2019-03-30T16:27:09.471Z,38.55
2019-03-30T16:29:37.565Z,38.76
2019-03-30T16:32:05.635Z,38.92
2019-03-30T16:34:33.823Z,39.11
2019-03-30T16:37:01.926Z,39.28
2019-03-30T16:39:29.909Z,39.43
2019-03-30T16:41:57.935Z,39.65
2019-03-30T16:44:26.014Z,39.68
2019-03-30T16:46:57.287Z,39.88
2019-03-30T16:49:23.812Z,40.08
2019-03-30T16:51:51.874Z,40.18
2019-03-30T16:54:19.986Z,40.34
2019-03-30T16:56:48.136Z,40.59
2019-03-30T16:59:16.217Z,40.83
2019-03-30T17:01:44.344Z,41.00
2019-03-30T17:04:12.529Z,40.89
2019-03-30T17:06:40.615Z,41.02
2019-03-30T17:09:09.045Z,40.92
2019-03-30T17:11:37.548Z,40.96
2019-03-30T17:14:05.854Z,41.05
2019-03-30T17:16:33.946Z,40.98
2019-03-30T17:19:01.894Z,41.10
2019-03-30T17:21:31.931Z,41.21
2019-03-30T17:24:00.159Z,41.17
2019-03-30T17:26:28.072Z,41.09
2019-03-30T17:28:56.118Z,41.09
2019-03-30T17:31:27.245Z,41.21
2019-03-30T17:33:56.078Z,41.13
2019-03-30T17:36:25.703Z,41.10
2019-03-30T17:38:54.216Z,41.22
2019-03-30T17:41:24.917Z,41.28
2019-03-30T17:43:54.122Z,41.38
2019-03-30T17:46:22.451Z,41.37
2019-03-30T17:48:50.385Z,41.31
2019-03-30T17:51:20.494Z,41.43
2019-03-30T17:53:49.437Z,41.57
2019-03-30T17:56:17.479Z,41.68
2019-03-30T17:58:45.477Z,41.91
2019-03-30T18:01:15.708Z,41.89
2019-03-30T18:03:43.653Z,42.01
2019-03-30T18:06:11.817Z,41.96
2019-03-30T18:08:39.972Z,41.94
2019-03-30T18:11:08.123Z,42.18
2019-03-30T18:13:36.924Z,42.10
2019-03-30T18:16:05.103Z,42.33
2019-03-30T18:18:33.414Z,42.37
2019-03-30T18:21:01.634Z,42.73
2019-03-30T18:23:29.635Z,43.02
2019-03-30T18:25:57.690Z,43.07
2019-03-30T18:28:27.260Z,43.23
2019-03-30T18:30:55.996Z,43.87
2019-03-30T18:33:24.657Z,43.52
2019-03-30T18:35:53.279Z,43.36
2019-03-30T18:38:21.972Z,43.40
2019-03-30T18:40:50.746Z,43.69
2019-03-30T18:43:19.416Z,43.94
2019-03-30T18:45:47.464Z,43.70
2019-03-30T18:48:16.967Z,43.80
2019-03-30T18:50:48.682Z,44.21
2019-03-30T18:53:18.167Z,44.30
2019-03-30T18:55:46.613Z,44.88
2019-03-30T18:58:14.815Z,45.09
2019-03-30T19:00:42.841Z,45.67
2019-03-30T19:03:11.325Z,45.11
2019-03-30T19:05:39.314Z,45.02
2019-03-30T19:08:07.665Z,44.95
2019-03-30T19:10:35.819Z,45.24
2019-03-30T19:13:03.830Z,45.18
2019-03-30T19:15:32.071Z,46.44
2019-03-30T19:18:00.047Z,46.22
2019-03-30T19:20:28.060Z,45.96
2019-03-30T19:22:56.154Z,45.49
2019-03-30T19:25:24.315Z,45.28
2019-03-30T19:27:52.595Z,45.26
2019-03-30T19:30:21.075Z,45.07
2019-03-30T19:32:49.223Z,45.49
2019-03-30T19:35:17.317Z,45.25
2019-03-30T19:37:45.354Z,45.46
2019-03-30T19:40:13.589Z,45.34
2019-03-30T19:42:43.152Z,46.14
2019-03-30T19:45:11.540Z,45.63
2019-03-30T19:47:39.717Z,45.96
2019-03-30T19:50:08.163Z,46.44
2019-03-30T19:52:40.008Z,46.98
2019-03-30T19:55:08.269Z,47.03
2019-03-30T19:57:36.572Z,47.41
2019-03-30T20:00:06.402Z,47.17
2019-03-30T20:02:34.350Z,47.51
2019-03-30T20:05:03.290Z,47.72
2019-03-30T20:07:31.827Z,47.57
2019-03-30T20:10:00.515Z,47.69
2019-03-30T20:12:29.467Z,47.55
2019-03-30T20:14:57.644Z,47.58
2019-03-30T20:17:25.648Z,48.25
2019-03-30T20:19:53.682Z,48.23
2019-03-30T20:22:22.095Z,48.02
2019-03-30T20:24:51.430Z,48.23
2019-03-30T20:27:22.319Z,48.05
2019-03-30T20:29:51.523Z,48.40
2019-03-30T20:32:19.510Z,48.98
2019-03-30T20:34:48.767Z,49.15
2019-03-30T20:37:16.723Z,49.12
2019-03-30T20:39:44.715Z,48.99
2019-03-30T20:42:12.922Z,48.90
2019-03-30T20:44:41.659Z,48.63
2019-03-30T20:47:09.793Z,48.47
2019-03-30T20:49:37.861Z,48.84
2019-03-30T20:52:05.822Z,49.23
2019-03-30T20:54:33.940Z,49.43
2019-03-30T20:57:02.035Z,49.43
2019-03-30T20:59:39.774Z,49.13
2019-03-30T21:02:02.133Z,49.64
2019-03-30T21:04:30.123Z,50.40
2019-03-30T21:06:58.320Z,50.98
2019-03-30T21:09:26.407Z,51.58
2019-03-30T21:11:54.793Z,52.07
2019-03-30T21:14:22.788Z,51.29
2019-03-30T21:16:50.742Z,51.05
2019-03-30T21:19:18.792Z,51.13
2019-03-30T21:21:47.246Z,51.54
2019-03-30T21:24:15.477Z,51.48
2019-03-30T21:26:43.577Z,52.03
2019-03-30T21:29:12.072Z,52.47
2019-03-30T21:31:40.031Z,52.34
2019-03-30T21:34:08.137Z,52.52
2019-03-30T21:36:36.101Z,51.68
2019-03-30T21:39:06.378Z,51.83
2019-03-30T21:41:34.469Z,52.56
2019-03-30T21:44:02.719Z,52.54
2019-03-30T21:46:30.656Z,52.47
2019-03-30T21:48:59.003Z,52.54
2019-03-30T21:51:26.979Z,52.71
2019-03-30T21:53:54.908Z,53.20
2019-03-30T21:56:23.108Z,53.70
2019-03-30T21:58:51.304Z,53.46
2019-03-30T22:01:19.356Z,54.02
2019-03-30T22:03:47.399Z,53.65
2019-03-30T22:06:15.810Z,53.64
2019-03-30T22:08:44.024Z,53.89
2019-03-30T22:11:11.952Z,53.87
2019-03-30T22:13:40.087Z,53.62
2019-03-30T22:16:08.340Z,54.41
2019-03-30T22:18:36.313Z,53.86
2019-03-30T22:21:04.445Z,54.12
2019-03-30T22:23:32.884Z,53.98
2019-03-30T22:26:01.013Z,54.35
2019-03-30T22:28:29.194Z,54.33
2019-03-30T22:30:57.176Z,54.83
2019-03-30T22:33:25.099Z,54.61
2019-03-30T22:35:53.205Z,54.92
2019-03-30T22:38:21.198Z,55.16
2019-03-30T22:40:49.199Z,55.01
2019-03-30T22:43:18.061Z,55.28
2019-03-30T22:45:46.107Z,55.24
2019-03-30T22:48:14.162Z,55.12
2019-03-30T22:50:42.245Z,55.43
2019-03-30T22:53:10.166Z,56.87
2019-03-30T22:55:38.159Z,57.14
2019-03-30T22:58:06.170Z,56.51
2019-03-30T23:00:52.348Z,55.98
2019-03-30T23:03:20.373Z,56.18
2019-03-30T23:05:48.965Z,56.38
2019-03-30T23:08:17.065Z,56.24
2019-03-30T23:10:45.150Z,59.45
2019-03-30T23:13:13.084Z,57.08
2019-03-30T23:15:41.110Z,57.04
2019-03-30T23:18:09.155Z,56.94
2019-03-30T23:20:37.206Z,57.58
2019-03-30T23:23:05.216Z,57.09
2019-03-30T23:25:33.196Z,57.03
2019-03-30T23:28:01.360Z,57.99
2019-03-30T23:30:29.339Z,58.84
2019-03-30T23:32:57.296Z,57.58
2019-03-30T23:35:25.297Z,57.91
2019-03-30T23:37:53.298Z,58.17
2019-03-30T23:40:21.252Z,58.43
2019-03-30T23:42:49.275Z,58.69
2019-03-30T23:45:17.417Z,58.54
2019-03-30T23:47:45.634Z,58.03
2019-03-30T23:50:13.794Z,58.47
2019-03-30T23:52:41.870Z,58.45
2019-03-30T23:55:09.922Z,58.62
2019-03-30T23:57:37.916Z,58.06
